sensor_id;sensor_type;location;lat;lon;timestamp;pressure;altitude;pressure_sealevel;temperature
74449;BMP280;62878;51.026;4.472;2022-12-29T00:01:20;-5976.84;;;16.59
74449;BMP280;62878;51.026;4.472;2022-12-29T00:03:46;-5974.16;;;16.43
74449;BMP280;62878;51.026;4.472;2022-12-29T00:06:11;-5975.84;;;16.53
74449;BMP280;62878;51.026;4.472;2022-12-29T00:08:37;-5974.75;;;16.46
74449;BMP280;62878;51.026;4.472;2022-12-29T00:11:07;-5971.47;;;16.26
74449;BMP280;62878;51.026;4.472;2022-12-29T00:13:33;-5973.16;;;16.37
74449;BMP280;62878;51.026;4.472;2022-12-29T00:16:17;-5971.38;;;16.26
74449;BMP280;62878;51.026;4.472;2022-12-29T00:18:42;-5975.34;;;16.50
74449;BMP280;62878;51.026;4.472;2022-12-29T00:21:13;-5975.25;;;16.49
74449;BMP280;62878;51.026;4.472;2022-12-29T00:23:57;-5974.09;;;16.42
74449;BMP280;62878;51.026;4.472;2022-12-29T00:26:58;-5974.66;;;16.46
74449;BMP280;62878;51.026;4.472;2022-12-29T00:29:51;-5975.19;;;16.49
74449;BMP280;62878;51.026;4.472;2022-12-29T00:32:36;-5976.28;;;16.55
74449;BMP280;62878;51.026;4.472;2022-12-29T00:37:52;-5978.13;;;16.66
74449;BMP280;62878;51.026;4.472;2022-12-29T00:40:37;-5979.88;;;16.77
74449;BMP280;62878;51.026;4.472;2022-12-29T00:43:21;-5979.22;;;16.73
74449;BMP280;62878;51.026;4.472;2022-12-29T00:46:05;-5980.56;;;16.81
74449;BMP280;62878;51.026;4.472;2022-12-29T00:48:30;-5978.22;;;16.67
74449;BMP280;62878;51.026;4.472;2022-12-29T00:51:14;-5980.47;;;16.80
74449;BMP280;62878;51.026;4.472;2022-12-29T00:53:39;-5979.06;;;16.72
74449;BMP280;62878;51.026;4.472;2022-12-29T00:56:05;-5978.78;;;16.70
74449;BMP280;62878;51.026;4.472;2022-12-29T00:58:30;-5979.88;;;16.77
74449;BMP280;62878;51.026;4.472;2022-12-29T01:01:07;-5981.22;;;16.85
74449;BMP280;62878;51.026;4.472;2022-12-29T01:03:33;-5978.03;;;16.66
74449;BMP280;62878;51.026;4.472;2022-12-29T01:06:08;-5982.00;;;16.90
74449;BMP280;62878;51.026;4.472;2022-12-29T01:08:33;-5982.84;;;16.95
74449;BMP280;62878;51.026;4.472;2022-12-29T01:11:00;-5981.81;;;16.88
74449;BMP280;62878;51.026;4.472;2022-12-29T01:13:26;-5981.75;;;16.88
74449;BMP280;62878;51.026;4.472;2022-12-29T01:15:52;-5982.25;;;16.91
74449;BMP280;62878;51.026;4.472;2022-12-29T01:18:18;-5977.13;;;16.60
74449;BMP280;62878;51.026;4.472;2022-12-29T01:20:44;-5980.72;;;16.82
74449;BMP280;62878;51.026;4.472;2022-12-29T01:23:09;-5983.44;;;16.98
74449;BMP280;62878;51.026;4.472;2022-12-29T01:25:34;-5982.06;;;16.90
74449;BMP280;62878;51.026;4.472;2022-12-29T01:28:00;-5982.59;;;16.93
74449;BMP280;62878;51.026;4.472;2022-12-29T01:30:25;-5981.91;;;16.89
74449;BMP280;62878;51.026;4.472;2022-12-29T01:32:50;-5975.25;;;16.49
74449;BMP280;62878;51.026;4.472;2022-12-29T01:35:16;-5977.88;;;16.65
74449;BMP280;62878;51.026;4.472;2022-12-29T01:37:41;-5982.59;;;16.93
74449;BMP280;62878;51.026;4.472;2022-12-29T01:40:07;-5979.81;;;16.76
74449;BMP280;62878;51.026;4.472;2022-12-29T01:42:32;-5983.50;;;16.99
74449;BMP280;62878;51.026;4.472;2022-12-29T01:45:02;-5980.22;;;16.79
74449;BMP280;62878;51.026;4.472;2022-12-29T01:47:31;-5984.59;;;17.05
74449;BMP280;62878;51.026;4.472;2022-12-29T01:50:03;-5978.03;;;16.66
74449;BMP280;62878;51.026;4.472;2022-12-29T01:52:31;-5977.53;;;16.63
74449;BMP280;62878;51.026;4.472;2022-12-29T01:54:58;-5976.53;;;16.57
74449;BMP280;62878;51.026;4.472;2022-12-29T01:57:28;-5979.22;;;16.73
74449;BMP280;62878;51.026;4.472;2022-12-29T02:00:03;-5979.72;;;16.76
74449;BMP280;62878;51.026;4.472;2022-12-29T02:02:29;-5977.38;;;16.62
74449;BMP280;62878;51.026;4.472;2022-12-29T02:04:57;-5978.38;;;16.68
74449;BMP280;62878;51.026;4.472;2022-12-29T02:07:25;-5978.22;;;16.67
74449;BMP280;62878;51.026;4.472;2022-12-29T02:09:53;-5979.72;;;16.76
74449;BMP280;62878;51.026;4.472;2022-12-29T02:12:21;-5981.56;;;16.87
74449;BMP280;62878;51.026;4.472;2022-12-29T02:14:53;-5980.97;;;16.83
74449;BMP280;62878;51.026;4.472;2022-12-29T02:20:15;-5982.41;;;16.92
74449;BMP280;62878;51.026;4.472;2022-12-29T02:32:07;-5984.78;;;17.06
74449;BMP280;62878;51.026;4.472;2022-12-29T02:37:16;-5984.59;;;17.05
74449;BMP280;62878;51.026;4.472;2022-12-29T02:40:11;-5986.03;;;17.14
74449;BMP280;62878;51.026;4.472;2022-12-29T02:42:55;-5985.44;;;17.10
74449;BMP280;62878;51.026;4.472;2022-12-29T02:45:43;-5984.28;;;17.03
74449;BMP280;62878;51.026;4.472;2022-12-29T02:48:30;-5986.28;;;17.15
74449;BMP280;62878;51.026;4.472;2022-12-29T02:51:01;-5984.94;;;17.07
74449;BMP280;62878;51.026;4.472;2022-12-29T02:53:30;-5985.63;;;17.11
74449;BMP280;62878;51.026;4.472;2022-12-29T02:56:14;-5980.56;;;16.81
74449;BMP280;62878;51.026;4.472;2022-12-29T02:58:39;-5984.28;;;17.03
74449;BMP280;62878;51.026;4.472;2022-12-29T03:12:02;-5984.78;;;17.06
74449;BMP280;62878;51.026;4.472;2022-12-29T03:14:43;-5985.63;;;17.11
74449;BMP280;62878;51.026;4.472;2022-12-29T03:18:19;-5986.28;;;17.15
74449;BMP280;62878;51.026;4.472;2022-12-29T03:21:05;-5986.72;;;17.18
74449;BMP280;62878;51.026;4.472;2022-12-29T03:23:32;-5986.38;;;17.16
74449;BMP280;62878;51.026;4.472;2022-12-29T03:26:01;-5987.63;;;17.23
74449;BMP280;62878;51.026;4.472;2022-12-29T03:28:36;-5983.25;;;16.97
74449;BMP280;62878;51.026;4.472;2022-12-29T03:31:03;-5982.06;;;16.90
74449;BMP280;62878;51.026;4.472;2022-12-29T03:33:30;-5982.75;;;16.94
74449;BMP280;62878;51.026;4.472;2022-12-29T03:35:59;-5980.72;;;16.82
74449;BMP280;62878;51.026;4.472;2022-12-29T03:38:33;-5985.09;;;17.08
74449;BMP280;62878;51.026;4.472;2022-12-29T03:41:04;-5983.25;;;16.97
74449;BMP280;62878;51.026;4.472;2022-12-29T03:43:31;-5984.28;;;17.03
74449;BMP280;62878;51.026;4.472;2022-12-29T03:45:56;-5981.22;;;16.85
74449;BMP280;62878;51.026;4.472;2022-12-29T03:48:22;-5983.84;;;17.01
74449;BMP280;62878;51.026;4.472;2022-12-29T03:50:47;-5982.16;;;16.91
74449;BMP280;62878;51.026;4.472;2022-12-29T03:53:12;-5983.94;;;17.01
74449;BMP280;62878;51.026;4.472;2022-12-29T03:55:38;-5984.09;;;17.02
74449;BMP280;62878;51.026;4.472;2022-12-29T03:58:03;-5983.44;;;16.98
74449;BMP280;62878;51.026;4.472;2022-12-29T04:00:29;-5984.44;;;17.04
74449;BMP280;62878;51.026;4.472;2022-12-29T04:02:54;-5982.06;;;16.90
74449;BMP280;62878;51.026;4.472;2022-12-29T04:05:20;-5984.28;;;17.03
74449;BMP280;62878;51.026;4.472;2022-12-29T04:07:45;-5982.50;;;16.93
74449;BMP280;62878;51.026;4.472;2022-12-29T04:10:11;-5983.09;;;16.96
74449;BMP280;62878;51.026;4.472;2022-12-29T04:12:36;-5979.88;;;16.77
74449;BMP280;62878;51.026;4.472;2022-12-29T04:15:02;-5983.75;;;17.00
74449;BMP280;62878;51.026;4.472;2022-12-29T04:17:27;-5984.28;;;17.03
74449;BMP280;62878;51.026;4.472;2022-12-29T04:19:52;-5982.84;;;16.95
74449;BMP280;62878;51.026;4.472;2022-12-29T04:22:38;-5976.84;;;16.59
74449;BMP280;62878;51.026;4.472;2022-12-29T04:25:03;-5981.66;;;16.88
74449;BMP280;62878;51.026;4.472;2022-12-29T04:27:28;-5972.16;;;16.30
74449;BMP280;62878;51.026;4.472;2022-12-29T04:29:54;-5980.91;;;16.83
74449;BMP280;62878;51.026;4.472;2022-12-29T04:32:19;-5981.50;;;16.86
74449;BMP280;62878;51.026;4.472;2022-12-29T04:34:44;-5980.06;;;16.78
74449;BMP280;62878;51.026;4.472;2022-12-29T04:37:10;-5981.91;;;16.89
74449;BMP280;62878;51.026;4.472;2022-12-29T04:39:35;-5982.06;;;16.90
74449;BMP280;62878;51.026;4.472;2022-12-29T04:42:00;-5974.66;;;16.46
74449;BMP280;62878;51.026;4.472;2022-12-29T04:44:26;-5981.91;;;16.89
74449;BMP280;62878;51.026;4.472;2022-12-29T04:46:51;-5979.31;;;16.73
74449;BMP280;62878;51.026;4.472;2022-12-29T04:49:17;-5976.84;;;16.59
74449;BMP280;62878;51.026;4.472;2022-12-29T04:51:42;-5980.22;;;16.79
74449;BMP280;62878;51.026;4.472;2022-12-29T04:54:07;-5981.50;;;16.86
74449;BMP280;62878;51.026;4.472;2022-12-29T04:56:32;-5977.63;;;16.63
74449;BMP280;62878;51.026;4.472;2022-12-29T04:58:58;-5980.91;;;16.83
74449;BMP280;62878;51.026;4.472;2022-12-29T05:01:23;-5980.66;;;16.81
74449;BMP280;62878;51.026;4.472;2022-12-29T05:03:50;-5981.16;;;16.84
74449;BMP280;62878;51.026;4.472;2022-12-29T05:06:16;-5977.38;;;16.62
74449;BMP280;62878;51.026;4.472;2022-12-29T05:08:41;-5980.97;;;16.83
74449;BMP280;62878;51.026;4.472;2022-12-29T05:11:06;-5978.03;;;16.66
74449;BMP280;62878;51.026;4.472;2022-12-29T05:13:32;-5980.31;;;16.79
74449;BMP280;62878;51.026;4.472;2022-12-29T05:15:57;-5974.50;;;16.45
74449;BMP280;62878;51.026;4.472;2022-12-29T05:18:23;-5980.06;;;16.78
74449;BMP280;62878;51.026;4.472;2022-12-29T05:20:48;-5977.38;;;16.62
74449;BMP280;62878;51.026;4.472;2022-12-29T05:23:14;-5979.88;;;16.77
74449;BMP280;62878;51.026;4.472;2022-12-29T05:25:39;-5976.00;;;16.54
74449;BMP280;62878;51.026;4.472;2022-12-29T05:28:05;-5973.84;;;16.41
74449;BMP280;62878;51.026;4.472;2022-12-29T05:30:30;-5974.66;;;16.46
74449;BMP280;62878;51.026;4.472;2022-12-29T05:32:55;-5974.34;;;16.44
74449;BMP280;62878;51.026;4.472;2022-12-29T05:35:21;-5978.78;;;16.70
74449;BMP280;62878;51.026;4.472;2022-12-29T05:37:46;-5977.78;;;16.64
74449;BMP280;62878;51.026;4.472;2022-12-29T05:40:11;-5977.38;;;16.62
74449;BMP280;62878;51.026;4.472;2022-12-29T05:42:37;-5967.59;;;16.03
74449;BMP280;62878;51.026;4.472;2022-12-29T05:45:02;-5977.03;;;16.60
74449;BMP280;62878;51.026;4.472;2022-12-29T05:47:28;-5976.09;;;16.54
74449;BMP280;62878;51.026;4.472;2022-12-29T05:49:53;-5976.34;;;16.56
74449;BMP280;62878;51.026;4.472;2022-12-29T05:52:18;-5976.44;;;16.56
74449;BMP280;62878;51.026;4.472;2022-12-29T05:54:44;-5976.28;;;16.55
74449;BMP280;62878;51.026;4.472;2022-12-29T05:57:09;-5977.53;;;16.63
74449;BMP280;62878;51.026;4.472;2022-12-29T05:59:35;-5978.03;;;16.66
74449;BMP280;62878;51.026;4.472;2022-12-29T06:02:00;-5977.88;;;16.65
74449;BMP280;62878;51.026;4.472;2022-12-29T06:04:25;-5978.22;;;16.67
74449;BMP280;62878;51.026;4.472;2022-12-29T06:06:50;-5978.53;;;16.69
74449;BMP280;62878;51.026;4.472;2022-12-29T06:09:16;-5979.06;;;16.72
74449;BMP280;62878;51.026;4.472;2022-12-29T06:11:41;-5979.38;;;16.74
74449;BMP280;62878;51.026;4.472;2022-12-29T06:14:08;-5977.88;;;16.65
74449;BMP280;62878;51.026;4.472;2022-12-29T06:16:33;-5971.81;;;16.28
74449;BMP280;62878;51.026;4.472;2022-12-29T06:18:58;-5976.94;;;16.59
74449;BMP280;62878;51.026;4.472;2022-12-29T06:21:23;-5977.53;;;16.63
74449;BMP280;62878;51.026;4.472;2022-12-29T06:23:49;-5976.59;;;16.57
74449;BMP280;62878;51.026;4.472;2022-12-29T06:26:14;-5978.13;;;16.66
74449;BMP280;62878;51.026;4.472;2022-12-29T06:28:39;-5974.09;;;16.42
74449;BMP280;62878;51.026;4.472;2022-12-29T06:31:05;-5977.44;;;16.62
74449;BMP280;62878;51.026;4.472;2022-12-29T06:33:33;-5978.03;;;16.66
74449;BMP280;62878;51.026;4.472;2022-12-29T06:35:58;-5977.19;;;16.61
74449;BMP280;62878;51.026;4.472;2022-12-29T06:38:24;-5977.38;;;16.62
74449;BMP280;62878;51.026;4.472;2022-12-29T06:40:49;-5977.53;;;16.63
74449;BMP280;62878;51.026;4.472;2022-12-29T06:43:14;-5976.19;;;16.55
74449;BMP280;62878;51.026;4.472;2022-12-29T06:45:40;-5976.53;;;16.57
74449;BMP280;62878;51.026;4.472;2022-12-29T06:48:06;-5976.44;;;16.56
74449;BMP280;62878;51.026;4.472;2022-12-29T06:50:31;-5969.63;;;16.15
74449;BMP280;62878;51.026;4.472;2022-12-29T06:52:56;-5971.81;;;16.28
74449;BMP280;62878;51.026;4.472;2022-12-29T06:55:22;-5974.66;;;16.46
74449;BMP280;62878;51.026;4.472;2022-12-29T06:57:47;-5973.41;;;16.38
74449;BMP280;62878;51.026;4.472;2022-12-29T07:00:13;-5975.84;;;16.53
74449;BMP280;62878;51.026;4.472;2022-12-29T07:02:38;-5974.50;;;16.45
74449;BMP280;62878;51.026;4.472;2022-12-29T07:05:03;-5973.06;;;16.36
74449;BMP280;62878;51.026;4.472;2022-12-29T07:07:29;-5975.78;;;16.52
74449;BMP280;62878;51.026;4.472;2022-12-29T07:09:54;-5970.72;;;16.22
74449;BMP280;62878;51.026;4.472;2022-12-29T07:12:19;-5969.53;;;16.15
74449;BMP280;62878;51.026;4.472;2022-12-29T07:14:45;-5974.50;;;16.45
74449;BMP280;62878;51.026;4.472;2022-12-29T07:17:10;-5971.31;;;16.25
74449;BMP280;62878;51.026;4.472;2022-12-29T07:19:35;-5975.50;;;16.51
74449;BMP280;62878;51.026;4.472;2022-12-29T07:22:01;-5973.91;;;16.41
74449;BMP280;62878;51.026;4.472;2022-12-29T07:24:26;-5974.84;;;16.47
74449;BMP280;62878;51.026;4.472;2022-12-29T07:26:52;-5974.84;;;16.47
74449;BMP280;62878;51.026;4.472;2022-12-29T07:29:17;-5974.16;;;16.43
74449;BMP280;62878;51.026;4.472;2022-12-29T07:31:43;-5973.66;;;16.40
74449;BMP280;62878;51.026;4.472;2022-12-29T07:34:09;-5973.31;;;16.38
74449;BMP280;62878;51.026;4.472;2022-12-29T07:36:34;-5975.25;;;16.49
74449;BMP280;62878;51.026;4.472;2022-12-29T07:38:59;-5974.09;;;16.42
74449;BMP280;62878;51.026;4.472;2022-12-29T07:41:25;-5973.50;;;16.39
74449;BMP280;62878;51.026;4.472;2022-12-29T07:43:50;-5970.97;;;16.23
74449;BMP280;62878;51.026;4.472;2022-12-29T07:46:15;-5974.16;;;16.43
74449;BMP280;62878;51.026;4.472;2022-12-29T07:48:41;-5968.88;;;16.11
74449;BMP280;62878;51.026;4.472;2022-12-29T07:51:06;-5974.34;;;16.44
74449;BMP280;62878;51.026;4.472;2022-12-29T07:53:31;-5974.00;;;16.42
74449;BMP280;62878;51.026;4.472;2022-12-29T07:55:57;-5973.84;;;16.41
74449;BMP280;62878;51.026;4.472;2022-12-29T07:58:23;-5972.16;;;16.30
74449;BMP280;62878;51.026;4.472;2022-12-29T08:00:53;-5974.84;;;16.47
74449;BMP280;62878;51.026;4.472;2022-12-29T08:03:18;-5970.47;;;16.20
74449;BMP280;62878;51.026;4.472;2022-12-29T08:05:43;-5973.31;;;16.38
74449;BMP280;62878;51.026;4.472;2022-12-29T08:08:09;-5974.00;;;16.42
74449;BMP280;62878;51.026;4.472;2022-12-29T08:10:34;-5973.56;;;16.39
74449;BMP280;62878;51.026;4.472;2022-12-29T08:12:59;-5971.13;;;16.24
74449;BMP280;62878;51.026;4.472;2022-12-29T08:15:24;-5971.81;;;16.28
74449;BMP280;62878;51.026;4.472;2022-12-29T08:17:50;-5973.41;;;16.38
74449;BMP280;62878;51.026;4.472;2022-12-29T08:20:15;-5973.16;;;16.37
74449;BMP280;62878;51.026;4.472;2022-12-29T08:22:41;-5971.38;;;16.26
74449;BMP280;62878;51.026;4.472;2022-12-29T08:25:06;-5970.97;;;16.23
74449;BMP280;62878;51.026;4.472;2022-12-29T08:27:32;-5973.41;;;16.38
74449;BMP280;62878;51.026;4.472;2022-12-29T08:29:57;-5972.66;;;16.33
74449;BMP280;62878;51.026;4.472;2022-12-29T08:32:22;-5972.47;;;16.32
74449;BMP280;62878;51.026;4.472;2022-12-29T08:34:48;-5972.47;;;16.32
74449;BMP280;62878;51.026;4.472;2022-12-29T08:37:13;-5971.06;;;16.24
74449;BMP280;62878;51.026;4.472;2022-12-29T08:39:39;-5972.16;;;16.30
74449;BMP280;62878;51.026;4.472;2022-12-29T08:42:04;-5970.38;;;16.20
74449;BMP280;62878;51.026;4.472;2022-12-29T08:44:29;-5971.97;;;16.29
74449;BMP280;62878;51.026;4.472;2022-12-29T08:46:55;-5971.13;;;16.24
74449;BMP280;62878;51.026;4.472;2022-12-29T08:49:20;-5969.28;;;16.13
74449;BMP280;62878;51.026;4.472;2022-12-29T08:51:45;-5972.16;;;16.30
74449;BMP280;62878;51.026;4.472;2022-12-29T08:54:11;-5969.97;;;16.17
74449;BMP280;62878;51.026;4.472;2022-12-29T08:56:36;-5967.78;;;16.04
74449;BMP280;62878;51.026;4.472;2022-12-29T08:59:01;-5969.78;;;16.16
74449;BMP280;62878;51.026;4.472;2022-12-29T09:01:27;-5972.47;;;16.32
74449;BMP280;62878;51.026;4.472;2022-12-29T09:03:53;-5971.56;;;16.27
74449;BMP280;62878;51.026;4.472;2022-12-29T09:06:18;-5971.56;;;16.27
74449;BMP280;62878;51.026;4.472;2022-12-29T09:08:44;-5971.31;;;16.25
74449;BMP280;62878;51.026;4.472;2022-12-29T09:11:17;-5970.81;;;16.22
74449;BMP280;62878;51.026;4.472;2022-12-29T09:13:43;-5971.97;;;16.29
74449;BMP280;62878;51.026;4.472;2022-12-29T09:16:09;-5973.41;;;16.38
74449;BMP280;62878;51.026;4.472;2022-12-29T09:18:35;-5973.31;;;16.38
74449;BMP280;62878;51.026;4.472;2022-12-29T09:21:03;-5973.16;;;16.37
74449;BMP280;62878;51.026;4.472;2022-12-29T09:23:29;-5972.47;;;16.32
74449;BMP280;62878;51.026;4.472;2022-12-29T09:25:55;-5968.09;;;16.06
74449;BMP280;62878;51.026;4.472;2022-12-29T09:28:23;-5975.09;;;16.48
74449;BMP280;62878;51.026;4.472;2022-12-29T09:30:50;-5975.25;;;16.49
74449;BMP280;62878;51.026;4.472;2022-12-29T09:33:16;-5969.38;;;16.14
74449;BMP280;62878;51.026;4.472;2022-12-29T09:35:45;-5976.34;;;16.56
74449;BMP280;62878;51.026;4.472;2022-12-29T09:38:11;-5976.69;;;16.58
74449;BMP280;62878;51.026;4.472;2022-12-29T09:40:37;-5976.94;;;16.59
74449;BMP280;62878;51.026;4.472;2022-12-29T09:45:45;-5978.03;;;16.66
74449;BMP280;62878;51.026;4.472;2022-12-29T09:48:17;-5978.22;;;16.67
74449;BMP280;62878;51.026;4.472;2022-12-29T09:50:47;-5979.88;;;16.77
74449;BMP280;62878;51.026;4.472;2022-12-29T09:53:16;-5979.22;;;16.73
74449;BMP280;62878;51.026;4.472;2022-12-29T09:55:49;-5978.38;;;16.68
74449;BMP280;62878;51.026;4.472;2022-12-29T09:58:35;-5978.63;;;16.69
74449;BMP280;62878;51.026;4.472;2022-12-29T10:01:04;-5979.13;;;16.72
74449;BMP280;62878;51.026;4.472;2022-12-29T10:03:45;-5979.72;;;16.76
74449;BMP280;62878;51.026;4.472;2022-12-29T10:06:17;-5978.47;;;16.68
74449;BMP280;62878;51.026;4.472;2022-12-29T10:14:20;-5980.91;;;16.83
74449;BMP280;62878;51.026;4.472;2022-12-29T10:17:32;-5980.47;;;16.80
74449;BMP280;62878;51.026;4.472;2022-12-29T10:20:27;-5980.91;;;16.83
74449;BMP280;62878;51.026;4.472;2022-12-29T10:25:44;-5980.13;;;16.78
74449;BMP280;62878;51.026;4.472;2022-12-29T10:28:22;-5981.66;;;16.88
74449;BMP280;62878;51.026;4.472;2022-12-29T10:30:48;-5980.41;;;16.80
74449;BMP280;62878;51.026;4.472;2022-12-29T10:33:20;-5979.81;;;16.76
74449;BMP280;62878;51.026;4.472;2022-12-29T10:35:48;-5983.59;;;16.99
74449;BMP280;62878;51.026;4.472;2022-12-29T10:38:44;-5980.06;;;16.78
74449;BMP280;62878;51.026;4.472;2022-12-29T10:41:14;-5983.00;;;16.96
74449;BMP280;62878;51.026;4.472;2022-12-29T10:43:47;-5983.34;;;16.98
74449;BMP280;62878;51.026;4.472;2022-12-29T10:46:16;-5979.88;;;16.77
74449;BMP280;62878;51.026;4.472;2022-12-29T10:48:44;-5984.28;;;17.03
74449;BMP280;62878;51.026;4.472;2022-12-29T10:51:30;-5984.94;;;17.07
74449;BMP280;62878;51.026;4.472;2022-12-29T10:54:03;-5984.69;;;17.06
74449;BMP280;62878;51.026;4.472;2022-12-29T10:56:35;-5984.34;;;17.04
74449;BMP280;62878;51.026;4.472;2022-12-29T10:59:24;-5985.19;;;17.09
74449;BMP280;62878;51.026;4.472;2022-12-29T11:02:02;-5983.94;;;17.01
74449;BMP280;62878;51.026;4.472;2022-12-29T11:07:20;-5984.94;;;17.07
74449;BMP280;62878;51.026;4.472;2022-12-29T11:09:47;-5986.13;;;17.14
74449;BMP280;62878;51.026;4.472;2022-12-29T11:12:24;-5982.59;;;16.93
74449;BMP280;62878;51.026;4.472;2022-12-29T11:15:13;-5983.25;;;16.97
74449;BMP280;62878;51.026;4.472;2022-12-29T11:17:50;-5986.38;;;17.16
74449;BMP280;62878;51.026;4.472;2022-12-29T11:20:35;-5985.78;;;17.12
74449;BMP280;62878;51.026;4.472;2022-12-29T11:23:04;-5984.44;;;17.04
74449;BMP280;62878;51.026;4.472;2022-12-29T11:25:29;-5986.13;;;17.14
74449;BMP280;62878;51.026;4.472;2022-12-29T11:28:00;-5986.28;;;17.15
74449;BMP280;62878;51.026;4.472;2022-12-29T11:30:31;-5985.69;;;17.12
74449;BMP280;62878;51.026;4.472;2022-12-29T11:32:57;-5987.28;;;17.21
74449;BMP280;62878;51.026;4.472;2022-12-29T11:37:57;-5981.75;;;16.88
74449;BMP280;62878;51.026;4.472;2022-12-29T11:40:23;-5987.63;;;17.23
74449;BMP280;62878;51.026;4.472;2022-12-29T11:43:00;-5988.81;;;17.30
74449;BMP280;62878;51.026;4.472;2022-12-29T11:45:45;-5983.00;;;16.96
74449;BMP280;62878;51.026;4.472;2022-12-29T11:48:19;-5986.38;;;17.16
74449;BMP280;62878;51.026;4.472;2022-12-29T11:50:52;-5986.63;;;17.17
74449;BMP280;62878;51.026;4.472;2022-12-29T11:53:41;-5987.03;;;17.20
74449;BMP280;62878;51.026;4.472;2022-12-29T11:56:12;-5983.59;;;16.99
74449;BMP280;62878;51.026;4.472;2022-12-29T11:58:38;-5988.13;;;17.26
74449;BMP280;62878;51.026;4.472;2022-12-29T12:01:34;-5986.19;;;17.15
74449;BMP280;62878;51.026;4.472;2022-12-29T12:04:14;-5988.06;;;17.26
74449;BMP280;62878;51.026;4.472;2022-12-29T12:06:45;-5987.88;;;17.25
74449;BMP280;62878;51.026;4.472;2022-12-29T12:09:21;-5988.13;;;17.26
74449;BMP280;62878;51.026;4.472;2022-12-29T12:11:51;-5985.09;;;17.08
74449;BMP280;62878;51.026;4.472;2022-12-29T12:14:32;-5980.13;;;16.78
74449;BMP280;62878;51.026;4.472;2022-12-29T12:17:08;-5982.50;;;16.93
74449;BMP280;62878;51.026;4.472;2022-12-29T12:19:44;-5981.22;;;16.85
74449;BMP280;62878;51.026;4.472;2022-12-29T12:22:17;-5985.94;;;17.13
74449;BMP280;62878;51.026;4.472;2022-12-29T12:24:51;-5983.59;;;16.99
74449;BMP280;62878;51.026;4.472;2022-12-29T12:41:21;-5982.91;;;16.95
74449;BMP280;62878;51.026;4.472;2022-12-29T12:44:00;-5981.16;;;16.84
74449;BMP280;62878;51.026;4.472;2022-12-29T13:00:07;-5984.59;;;17.05
74449;BMP280;62878;51.026;4.472;2022-12-29T13:16:34;-5987.97;;;17.25
74449;BMP280;62878;51.026;4.472;2022-12-29T13:19:12;-5987.97;;;17.25
74449;BMP280;62878;51.026;4.472;2022-12-29T13:24:49;-5989.81;;;17.36
74449;BMP280;62878;51.026;4.472;2022-12-29T13:27:44;-5989.66;;;17.35
74449;BMP280;62878;51.026;4.472;2022-12-29T13:30:22;-5987.22;;;17.21
74449;BMP280;62878;51.026;4.472;2022-12-29T13:35:46;-5985.34;;;17.10
74449;BMP280;62878;51.026;4.472;2022-12-29T13:41:00;-5983.34;;;16.98
74449;BMP280;62878;51.026;4.472;2022-12-29T13:43:28;-5988.06;;;17.26
74449;BMP280;62878;51.026;4.472;2022-12-29T13:46:23;-5985.88;;;17.13
74449;BMP280;62878;51.026;4.472;2022-12-29T13:49:05;-5985.94;;;17.13
74449;BMP280;62878;51.026;4.472;2022-12-29T13:51:33;-5978.78;;;16.70
74449;BMP280;62878;51.026;4.472;2022-12-29T13:54:31;-5982.06;;;16.90
74449;BMP280;62878;51.026;4.472;2022-12-29T13:59:38;-5985.03;;;17.08
74449;BMP280;62878;51.026;4.472;2022-12-29T14:02:26;-5985.94;;;17.13
74449;BMP280;62878;51.026;4.472;2022-12-29T14:05:02;-5987.47;;;17.22
74449;BMP280;62878;51.026;4.472;2022-12-29T14:07:28;-5986.03;;;17.14
74449;BMP280;62878;51.026;4.472;2022-12-29T14:09:55;-5982.06;;;16.90
74449;BMP280;62878;51.026;4.472;2022-12-29T14:15:02;-5986.44;;;17.16
74449;BMP280;62878;51.026;4.472;2022-12-29T14:17:28;-5987.97;;;17.25
74449;BMP280;62878;51.026;4.472;2022-12-29T14:19:53;-5986.28;;;17.15
74449;BMP280;62878;51.026;4.472;2022-12-29T14:22:26;-5984.28;;;17.03
74449;BMP280;62878;51.026;4.472;2022-12-29T14:24:52;-5982.25;;;16.91
74449;BMP280;62878;51.026;4.472;2022-12-29T14:29:44;-5981.22;;;16.85
74449;BMP280;62878;51.026;4.472;2022-12-29T14:39:48;-5987.22;;;17.21
74449;BMP280;62878;51.026;4.472;2022-12-29T14:42:15;-5983.75;;;17.00
74449;BMP280;62878;51.026;4.472;2022-12-29T14:44:49;-5986.78;;;17.18
74449;BMP280;62878;51.026;4.472;2022-12-29T14:47:27;-5986.63;;;17.17
74449;BMP280;62878;51.026;4.472;2022-12-29T14:50:03;-5985.94;;;17.13
74449;BMP280;62878;51.026;4.472;2022-12-29T14:52:30;-5985.69;;;17.12
74449;BMP280;62878;51.026;4.472;2022-12-29T14:57:43;-5984.34;;;17.04
74449;BMP280;62878;51.026;4.472;2022-12-29T15:00:19;-5985.34;;;17.10
74449;BMP280;62878;51.026;4.472;2022-12-29T15:02:54;-5984.84;;;17.07
74449;BMP280;62878;51.026;4.472;2022-12-29T15:05:31;-5982.59;;;16.93
74449;BMP280;62878;51.026;4.472;2022-12-29T15:07:58;-5982.59;;;16.93
74449;BMP280;62878;51.026;4.472;2022-12-29T15:10:25;-5984.44;;;17.04
74449;BMP280;62878;51.026;4.472;2022-12-29T15:12:53;-5983.59;;;16.99
74449;BMP280;62878;51.026;4.472;2022-12-29T15:15:26;-5983.94;;;17.01
74449;BMP280;62878;51.026;4.472;2022-12-29T15:17:52;-5978.72;;;16.70
74449;BMP280;62878;51.026;4.472;2022-12-29T15:20:30;-5983.75;;;17.00
74449;BMP280;62878;51.026;4.472;2022-12-29T15:23:09;-5983.44;;;16.98
74449;BMP280;62878;51.026;4.472;2022-12-29T15:25:35;-5982.66;;;16.94
74449;BMP280;62878;51.026;4.472;2022-12-29T15:28:03;-5982.91;;;16.95
74449;BMP280;62878;51.026;4.472;2022-12-29T15:30:29;-5980.91;;;16.83
74449;BMP280;62878;51.026;4.472;2022-12-29T15:32:55;-5979.81;;;16.76
74449;BMP280;62878;51.026;4.472;2022-12-29T15:35:36;-5980.66;;;16.81
74449;BMP280;62878;51.026;4.472;2022-12-29T15:38:13;-5982.50;;;16.93
74449;BMP280;62878;51.026;4.472;2022-12-29T15:40:43;-5979.72;;;16.76
74449;BMP280;62878;51.026;4.472;2022-12-29T15:43:36;-5981.81;;;16.88
74449;BMP280;62878;51.026;4.472;2022-12-29T15:46:13;-5981.56;;;16.87
74449;BMP280;62878;51.026;4.472;2022-12-29T15:48:39;-5977.69;;;16.64
74449;BMP280;62878;51.026;4.472;2022-12-29T15:51:26;-5981.50;;;16.86
74449;BMP280;62878;51.026;4.472;2022-12-29T15:53:53;-5979.88;;;16.77
74449;BMP280;62878;51.026;4.472;2022-12-29T15:56:19;-5980.41;;;16.80
74449;BMP280;62878;51.026;4.472;2022-12-29T15:58:48;-5979.63;;;16.75
74449;BMP280;62878;51.026;4.472;2022-12-29T16:01:28;-5978.47;;;16.68
74449;BMP280;62878;51.026;4.472;2022-12-29T16:03:55;-5971.47;;;16.26
74449;BMP280;62878;51.026;4.472;2022-12-29T16:09:17;-5972.81;;;16.34
74449;BMP280;62878;51.026;4.472;2022-12-29T16:11:45;-5974.25;;;16.43
74449;BMP280;62878;51.026;4.472;2022-12-29T16:14:20;-5973.84;;;16.41
74449;BMP280;62878;51.026;4.472;2022-12-29T16:16:47;-5973.50;;;16.39
74449;BMP280;62878;51.026;4.472;2022-12-29T16:21:48;-5979.56;;;16.75
74449;BMP280;62878;51.026;4.472;2022-12-29T16:24:21;-5976.69;;;16.58